sensor_id;sensor_type;location;lat;lon;timestamp;temperature;humidity
54622;DHT22;40521;53.146;6.556;2023-03-14T00:02:18;8.50;99.90
54622;DHT22;40521;53.146;6.556;2023-03-14T00:04:44;8.60;99.90
54622;DHT22;40521;53.146;6.556;2023-03-14T00:07:10;8.70;99.90
54622;DHT22;40521;53.146;6.556;2023-03-14T00:09:39;8.80;99.90
54622;DHT22;40521;53.146;6.556;2023-03-14T00:12:08;8.80;99.90
54622;DHT22;40521;53.146;6.556;2023-03-14T00:14:34;8.80;99.90
54622;DHT22;40521;53.146;6.556;2023-03-14T00:17:00;8.80;99.90
54622;DHT22;40521;53.146;6.556;2023-03-14T00:19:25;8.90;99.90
54622;DHT22;40521;53.146;6.556;2023-03-14T00:21:54;8.90;99.90
54622;DHT22;40521;53.146;6.556;2023-03-14T00:24:19;8.90;99.90
54622;DHT22;40521;53.146;6.556;2023-03-14T00:26:45;7.80;99.90
54622;DHT22;40521;53.146;6.556;2023-03-14T00:29:13;9.00;99.90
54622;DHT22;40521;53.146;6.556;2023-03-14T00:31:38;9.10;99.90
54622;DHT22;40521;53.146;6.556;2023-03-14T00:34:04;9.10;99.90
54622;DHT22;40521;53.146;6.556;2023-03-14T00:36:32;9.20;99.90
54622;DHT22;40521;53.146;6.556;2023-03-14T00:38:58;9.20;99.90
54622;DHT22;40521;53.146;6.556;2023-03-14T00:41:24;9.20;99.90
54622;DHT22;40521;53.146;6.556;2023-03-14T00:43:49;9.20;99.90
54622;DHT22;40521;53.146;6.556;2023-03-14T00:46:15;9.20;99.90
54622;DHT22;40521;53.146;6.556;2023-03-14T00:48:43;9.20;99.90
54622;DHT22;40521;53.146;6.556;2023-03-14T00:51:09;9.00;99.90
54622;DHT22;40521;53.146;6.556;2023-03-14T00:53:37;8.70;99.90
54622;DHT22;40521;53.146;6.556;2023-03-14T00:56:07;9.20;99.90
54622;DHT22;40521;53.146;6.556;2023-03-14T00:58:33;9.20;99.90
54622;DHT22;40521;53.146;6.556;2023-03-14T01:00:58;9.10;99.90
54622;DHT22;40521;53.146;6.556;2023-03-14T01:03:24;9.30;99.90
54622;DHT22;40521;53.146;6.556;2023-03-14T01:05:50;9.30;99.90
54622;DHT22;40521;53.146;6.556;2023-03-14T01:08:15;9.40;99.90
54622;DHT22;40521;53.146;6.556;2023-03-14T01:10:41;9.40;99.90
54622;DHT22;40521;53.146;6.556;2023-03-14T01:13:07;9.60;99.90
54622;DHT22;40521;53.146;6.556;2023-03-14T01:15:34;9.30;99.90
54622;DHT22;40521;53.146;6.556;2023-03-14T01:17:59;9.40;99.90
54622;DHT22;40521;53.146;6.556;2023-03-14T01:20:25;9.30;99.90
54622;DHT22;40521;53.146;6.556;2023-03-14T01:22:50;9.30;99.90
54622;DHT22;40521;53.146;6.556;2023-03-14T01:25:16;9.30;99.90
54622;DHT22;40521;53.146;6.556;2023-03-14T01:27:45;9.40;99.90
54622;DHT22;40521;53.146;6.556;2023-03-14T01:30:11;9.40;99.90
54622;DHT22;40521;53.146;6.556;2023-03-14T01:32:37;9.60;99.90
54622;DHT22;40521;53.146;6.556;2023-03-14T01:35:05;9.50;99.90
54622;DHT22;40521;53.146;6.556;2023-03-14T01:37:31;9.60;99.90
54622;DHT22;40521;53.146;6.556;2023-03-14T01:39:57;9.60;99.90
54622;DHT22;40521;53.146;6.556;2023-03-14T01:42:22;9.50;99.90
54622;DHT22;40521;53.146;6.556;2023-03-14T01:47:20;9.60;99.90
54622;DHT22;40521;53.146;6.556;2023-03-14T01:49:46;9.60;99.90
54622;DHT22;40521;53.146;6.556;2023-03-14T01:54:46;9.60;99.90
54622;DHT22;40521;53.146;6.556;2023-03-14T01:57:28;9.70;99.90
54622;DHT22;40521;53.146;6.556;2023-03-14T01:59:57;9.60;99.90
54622;DHT22;40521;53.146;6.556;2023-03-14T02:02:24;9.70;99.90
54622;DHT22;40521;53.146;6.556;2023-03-14T02:04:50;9.70;99.90
54622;DHT22;40521;53.146;6.556;2023-03-14T02:07:20;9.70;99.90
54622;DHT22;40521;53.146;6.556;2023-03-14T02:09:47;9.70;99.90
54622;DHT22;40521;53.146;6.556;2023-03-14T02:12:14;9.70;99.90
54622;DHT22;40521;53.146;6.556;2023-03-14T02:14:43;9.70;99.90
54622;DHT22;40521;53.146;6.556;2023-03-14T02:17:13;9.60;99.90
54622;DHT22;40521;53.146;6.556;2023-03-14T02:22:14;9.60;99.90
54622;DHT22;40521;53.146;6.556;2023-03-14T02:24:50;9.60;99.90
54622;DHT22;40521;53.146;6.556;2023-03-14T02:27:19;9.50;99.90
54622;DHT22;40521;53.146;6.556;2023-03-14T02:29:48;9.50;99.90
54622;DHT22;40521;53.146;6.556;2023-03-14T02:32:15;9.50;99.90
54622;DHT22;40521;53.146;6.556;2023-03-14T02:34:42;9.40;99.90
54622;DHT22;40521;53.146;6.556;2023-03-14T02:37:08;9.40;99.90
54622;DHT22;40521;53.146;6.556;2023-03-14T02:39:41;9.30;99.90
54622;DHT22;40521;53.146;6.556;2023-03-14T02:42:09;9.30;99.90
54622;DHT22;40521;53.146;6.556;2023-03-14T02:44:35;9.30;99.90
54622;DHT22;40521;53.146;6.556;2023-03-14T02:47:03;9.30;99.90
54622;DHT22;40521;53.146;6.556;2023-03-14T02:49:29;9.30;99.90
54622;DHT22;40521;53.146;6.556;2023-03-14T02:51:56;9.30;99.90
54622;DHT22;40521;53.146;6.556;2023-03-14T02:54:22;9.40;99.90
54622;DHT22;40521;53.146;6.556;2023-03-14T02:56:48;9.40;99.90
54622;DHT22;40521;53.146;6.556;2023-03-14T02:59:13;8.30;99.90
54622;DHT22;40521;53.146;6.556;2023-03-14T03:01:39;9.40;99.90
54622;DHT22;40521;53.146;6.556;2023-03-14T03:04:05;9.40;99.90
54622;DHT22;40521;53.146;6.556;2023-03-14T03:06:30;7.80;99.90
54622;DHT22;40521;53.146;6.556;2023-03-14T03:08:56;9.30;99.90
54622;DHT22;40521;53.146;6.556;2023-03-14T03:11:22;7.60;99.90
54622;DHT22;40521;53.146;6.556;2023-03-14T03:13:47;9.20;99.90
54622;DHT22;40521;53.146;6.556;2023-03-14T03:16:13;9.20;99.90
54622;DHT22;40521;53.146;6.556;2023-03-14T03:18:40;9.20;99.90
54622;DHT22;40521;53.146;6.556;2023-03-14T03:21:05;8.50;99.90
54622;DHT22;40521;53.146;6.556;2023-03-14T03:23:34;9.30;99.90
54622;DHT22;40521;53.146;6.556;2023-03-14T03:25:59;9.00;99.90
54622;DHT22;40521;53.146;6.556;2023-03-14T03:28:25;8.90;99.90
54622;DHT22;40521;53.146;6.556;2023-03-14T03:30:56;9.00;99.90
54622;DHT22;40521;53.146;6.556;2023-03-14T03:33:22;8.00;99.90
54622;DHT22;40521;53.146;6.556;2023-03-14T03:35:49;8.80;99.90
54622;DHT22;40521;53.146;6.556;2023-03-14T03:38:15;8.80;99.90
54622;DHT22;40521;53.146;6.556;2023-03-14T03:40:41;9.50;99.90
54622;DHT22;40521;53.146;6.556;2023-03-14T03:43:07;8.70;99.90
54622;DHT22;40521;53.146;6.556;2023-03-14T03:45:33;8.60;99.90
54622;DHT22;40521;53.146;6.556;2023-03-14T03:47:58;8.60;99.90
54622;DHT22;40521;53.146;6.556;2023-03-14T03:50:24;8.60;99.90
54622;DHT22;40521;53.146;6.556;2023-03-14T03:52:50;8.60;99.90
54622;DHT22;40521;53.146;6.556;2023-03-14T03:55:15;8.50;99.90
54622;DHT22;40521;53.146;6.556;2023-03-14T03:57:41;8.60;99.90
54622;DHT22;40521;53.146;6.556;2023-03-14T04:00:07;8.70;99.90
54622;DHT22;40521;53.146;6.556;2023-03-14T04:02:38;8.70;99.90
54622;DHT22;40521;53.146;6.556;2023-03-14T04:05:04;8.60;99.90
54622;DHT22;40521;53.146;6.556;2023-03-14T04:07:31;8.60;99.90
54622;DHT22;40521;53.146;6.556;2023-03-14T04:09:57;8.60;99.90
54622;DHT22;40521;53.146;6.556;2023-03-14T04:12:22;8.60;99.90
54622;DHT22;40521;53.146;6.556;2023-03-14T04:14:48;8.60;99.90
54622;DHT22;40521;53.146;6.556;2023-03-14T04:17:14;8.60;99.90
54622;DHT22;40521;53.146;6.556;2023-03-14T04:19:39;8.60;99.90
54622;DHT22;40521;53.146;6.556;2023-03-14T04:22:08;8.60;99.90
54622;DHT22;40521;53.146;6.556;2023-03-14T04:24:34;8.50;99.90
54622;DHT22;40521;53.146;6.556;2023-03-14T04:27:00;8.60;99.90
54622;DHT22;40521;53.146;6.556;2023-03-14T04:29:25;8.60;99.90
54622;DHT22;40521;53.146;6.556;2023-03-14T04:31:51;8.60;99.90
54622;DHT22;40521;53.146;6.556;2023-03-14T04:34:16;8.60;99.90
54622;DHT22;40521;53.146;6.556;2023-03-14T04:36:42;8.50;99.90
54622;DHT22;40521;53.146;6.556;2023-03-14T04:39:11;8.50;99.90
54622;DHT22;40521;53.146;6.556;2023-03-14T04:41:36;7.40;99.90
54622;DHT22;40521;53.146;6.556;2023-03-14T04:44:02;8.80;99.90
54622;DHT22;40521;53.146;6.556;2023-03-14T04:46:28;8.50;99.90
54622;DHT22;40521;53.146;6.556;2023-03-14T04:48:53;7.60;99.90
54622;DHT22;40521;53.146;6.556;2023-03-14T04:51:23;7.00;99.90
54622;DHT22;40521;53.146;6.556;2023-03-14T04:53:52;8.50;99.90
54622;DHT22;40521;53.146;6.556;2023-03-14T04:56:18;8.50;99.90
54622;DHT22;40521;53.146;6.556;2023-03-14T04:58:49;8.50;99.90
54622;DHT22;40521;53.146;6.556;2023-03-14T05:01:15;8.60;99.90
54622;DHT22;40521;53.146;6.556;2023-03-14T05:03:43;8.60;99.90
54622;DHT22;40521;53.146;6.556;2023-03-14T05:06:11;8.50;99.90
54622;DHT22;40521;53.146;6.556;2023-03-14T05:08:36;8.40;99.90
54622;DHT22;40521;53.146;6.556;2023-03-14T05:11:02;8.50;99.90
54622;DHT22;40521;53.146;6.556;2023-03-14T05:13:28;8.50;99.90
54622;DHT22;40521;53.146;6.556;2023-03-14T05:16:01;8.70;99.90
54622;DHT22;40521;53.146;6.556;2023-03-14T05:18:28;8.40;99.90
54622;DHT22;40521;53.146;6.556;2023-03-14T05:20:53;8.40;99.90
54622;DHT22;40521;53.146;6.556;2023-03-14T05:23:21;8.40;99.90
54622;DHT22;40521;53.146;6.556;2023-03-14T05:25:47;8.30;99.90
54622;DHT22;40521;53.146;6.556;2023-03-14T05:28:18;8.40;99.90
54622;DHT22;40521;53.146;6.556;2023-03-14T05:30:43;8.40;99.90
54622;DHT22;40521;53.146;6.556;2023-03-14T05:33:09;8.40;99.90
54622;DHT22;40521;53.146;6.556;2023-03-14T05:35:37;8.30;99.90
54622;DHT22;40521;53.146;6.556;2023-03-14T05:38:03;8.40;99.90
54622;DHT22;40521;53.146;6.556;2023-03-14T05:40:29;7.10;99.90
54622;DHT22;40521;53.146;6.556;2023-03-14T05:42:54;8.40;99.90
54622;DHT22;40521;53.146;6.556;2023-03-14T05:45:20;7.70;99.90
54622;DHT22;40521;53.146;6.556;2023-03-14T05:47:55;8.40;99.90
54622;DHT22;40521;53.146;6.556;2023-03-14T05:50:21;8.40;99.90
54622;DHT22;40521;53.146;6.556;2023-03-14T05:52:47;8.70;99.90
54622;DHT22;40521;53.146;6.556;2023-03-14T05:55:15;8.70;99.90
54622;DHT22;40521;53.146;6.556;2023-03-14T05:57:40;8.30;99.90
54622;DHT22;40521;53.146;6.556;2023-03-14T06:00:09;8.60;99.90
54622;DHT22;40521;53.146;6.556;2023-03-14T06:02:34;8.30;99.90
54622;DHT22;40521;53.146;6.556;2023-03-14T06:05:02;8.40;99.90
54622;DHT22;40521;53.146;6.556;2023-03-14T06:07:31;8.30;99.90
54622;DHT22;40521;53.146;6.556;2023-03-14T06:09:59;8.30;99.90
54622;DHT22;40521;53.146;6.556;2023-03-14T06:12:27;8.20;99.90
54622;DHT22;40521;53.146;6.556;2023-03-14T06:14:53;8.30;99.90
54622;DHT22;40521;53.146;6.556;2023-03-14T06:17:19;8.40;99.90
54622;DHT22;40521;53.146;6.556;2023-03-14T06:19:46;7.40;99.90
54622;DHT22;40521;53.146;6.556;2023-03-14T06:22:14;8.30;99.90
54622;DHT22;40521;53.146;6.556;2023-03-14T06:24:40;7.70;99.90
54622;DHT22;40521;53.146;6.556;2023-03-14T06:27:08;10.00;99.90
54622;DHT22;40521;53.146;6.556;2023-03-14T06:29:34;8.30;99.90
54622;DHT22;40521;53.146;6.556;2023-03-14T06:31:59;8.30;99.90
54622;DHT22;40521;53.146;6.556;2023-03-14T06:34:25;8.20;99.90
54622;DHT22;40521;53.146;6.556;2023-03-14T06:36:55;8.20;99.90
54622;DHT22;40521;53.146;6.556;2023-03-14T06:39:23;8.20;99.90
54622;DHT22;40521;53.146;6.556;2023-03-14T06:41:49;8.30;99.90
54622;DHT22;40521;53.146;6.556;2023-03-14T06:44:15;8.00;99.90
54622;DHT22;40521;53.146;6.556;2023-03-14T06:46:40;7.60;99.90
54622;DHT22;40521;53.146;6.556;2023-03-14T06:49:06;5.70;99.90
54622;DHT22;40521;53.146;6.556;2023-03-14T06:51:32;7.20;99.90
54622;DHT22;40521;53.146;6.556;2023-03-14T06:54:04;7.60;99.90
54622;DHT22;40521;53.146;6.556;2023-03-14T06:56:32;6.80;99.90
54622;DHT22;40521;53.146;6.556;2023-03-14T06:58:57;6.60;99.90
54622;DHT22;40521;53.146;6.556;2023-03-14T07:01:24;7.00;99.90
54622;DHT22;40521;53.146;6.556;2023-03-14T07:03:50;6.40;99.90
54622;DHT22;40521;53.146;6.556;2023-03-14T07:06:18;6.40;99.90
54622;DHT22;40521;53.146;6.556;2023-03-14T07:08:44;6.00;99.90
54622;DHT22;40521;53.146;6.556;2023-03-14T07:11:09;5.80;99.90
54622;DHT22;40521;53.146;6.556;2023-03-14T07:13:39;6.00;99.90
54622;DHT22;40521;53.146;6.556;2023-03-14T07:16:06;6.20;99.90
54622;DHT22;40521;53.146;6.556;2023-03-14T07:18:31;5.30;99.90
54622;DHT22;40521;53.146;6.556;2023-03-14T07:20:59;5.60;99.90
54622;DHT22;40521;53.146;6.556;2023-03-14T07:23:28;4.90;99.90
54622;DHT22;40521;53.146;6.556;2023-03-14T07:25:53;5.70;99.90
54622;DHT22;40521;53.146;6.556;2023-03-14T07:28:19;3.40;99.90
54622;DHT22;40521;53.146;6.556;2023-03-14T07:30:46;5.70;99.90
54622;DHT22;40521;53.146;6.556;2023-03-14T07:33:15;5.10;99.90
54622;DHT22;40521;53.146;6.556;2023-03-14T07:35:44;4.50;99.90
54622;DHT22;40521;53.146;6.556;2023-03-14T07:38:09;5.00;99.90
54622;DHT22;40521;53.146;6.556;2023-03-14T07:40:37;5.20;99.90
54622;DHT22;40521;53.146;6.556;2023-03-14T07:43:03;4.50;99.90
54622;DHT22;40521;53.146;6.556;2023-03-14T07:45:31;2.10;99.90
54622;DHT22;40521;53.146;6.556;2023-03-14T07:47:57;4.10;99.90
54622;DHT22;40521;53.146;6.556;2023-03-14T07:50:28;7.30;99.90
54622;DHT22;40521;53.146;6.556;2023-03-14T07:53:14;2.60;99.90
54622;DHT22;40521;53.146;6.556;2023-03-14T07:55:42;4.10;99.90
54622;DHT22;40521;53.146;6.556;2023-03-14T07:58:16;7.30;99.90
54622;DHT22;40521;53.146;6.556;2023-03-14T08:00:42;3.70;99.90
54622;DHT22;40521;53.146;6.556;2023-03-14T08:03:10;5.00;99.90
54622;DHT22;40521;53.146;6.556;2023-03-14T08:05:38;2.50;99.90
54622;DHT22;40521;53.146;6.556;2023-03-14T08:08:14;4.40;99.90
54622;DHT22;40521;53.146;6.556;2023-03-14T08:10:40;4.40;99.90
54622;DHT22;40521;53.146;6.556;2023-03-14T08:13:06;4.20;99.90
54622;DHT22;40521;53.146;6.556;2023-03-14T08:15:35;6.20;99.90
54622;DHT22;40521;53.146;6.556;2023-03-14T08:18:11;4.50;99.90
54622;DHT22;40521;53.146;6.556;2023-03-14T08:20:44;4.50;99.90
54622;DHT22;40521;53.146;6.556;2023-03-14T08:23:26;4.30;99.90
54622;DHT22;40521;53.146;6.556;2023-03-14T08:25:52;4.70;99.90
54622;DHT22;40521;53.146;6.556;2023-03-14T08:28:17;4.80;99.90
54622;DHT22;40521;53.146;6.556;2023-03-14T08:30:43;6.70;99.90
54622;DHT22;40521;53.146;6.556;2023-03-14T08:33:09;4.90;99.90
54622;DHT22;40521;53.146;6.556;2023-03-14T08:35:37;5.00;99.90
54622;DHT22;40521;53.146;6.556;2023-03-14T08:38:02;5.10;99.90
54622;DHT22;40521;53.146;6.556;2023-03-14T08:40:28;5.00;99.90
54622;DHT22;40521;53.146;6.556;2023-03-14T08:43:02;4.90;99.90
54622;DHT22;40521;53.146;6.556;2023-03-14T08:45:43;5.20;99.90
54622;DHT22;40521;53.146;6.556;2023-03-14T08:48:11;3.90;99.90
54622;DHT22;40521;53.146;6.556;2023-03-14T08:50:37;5.30;99.90
54622;DHT22;40521;53.146;6.556;2023-03-14T08:53:03;8.10;99.90
54622;DHT22;40521;53.146;6.556;2023-03-14T08:55:29;5.50;99.90
54622;DHT22;40521;53.146;6.556;2023-03-14T08:57:57;5.30;99.90
54622;DHT22;40521;53.146;6.556;2023-03-14T09:00:40;5.70;99.90
54622;DHT22;40521;53.146;6.556;2023-03-14T09:03:09;3.50;99.90
54622;DHT22;40521;53.146;6.556;2023-03-14T09:05:37;5.70;99.90
54622;DHT22;40521;53.146;6.556;2023-03-14T09:08:03;4.70;99.90
54622;DHT22;40521;53.146;6.556;2023-03-14T09:10:31;5.70;99.90
54622;DHT22;40521;53.146;6.556;2023-03-14T09:12:56;6.00;99.90
54622;DHT22;40521;53.146;6.556;2023-03-14T09:15:28;6.60;99.90
54622;DHT22;40521;53.146;6.556;2023-03-14T09:18:08;6.20;99.90
54622;DHT22;40521;53.146;6.556;2023-03-14T09:20:34;6.20;99.90
54622;DHT22;40521;53.146;6.556;2023-03-14T09:23:00;5.90;99.90
54622;DHT22;40521;53.146;6.556;2023-03-14T09:25:28;6.10;99.90
54622;DHT22;40521;53.146;6.556;2023-03-14T09:28:01;6.50;99.90
54622;DHT22;40521;53.146;6.556;2023-03-14T09:30:27;6.40;99.90
54622;DHT22;40521;53.146;6.556;2023-03-14T09:32:55;6.10;99.90
54622;DHT22;40521;53.146;6.556;2023-03-14T09:35:23;6.60;99.90
54622;DHT22;40521;53.146;6.556;2023-03-14T09:37:48;6.80;99.90
54622;DHT22;40521;53.146;6.556;2023-03-14T09:40:20;6.10;99.90
54622;DHT22;40521;53.146;6.556;2023-03-14T09:42:52;6.00;99.90
54622;DHT22;40521;53.146;6.556;2023-03-14T09:45:25;6.00;99.90
54622;DHT22;40521;53.146;6.556;2023-03-14T09:47:51;6.20;99.90
54622;DHT22;40521;53.146;6.556;2023-03-14T09:50:17;6.40;99.90
54622;DHT22;40521;53.146;6.556;2023-03-14T09:52:45;6.20;99.90
54622;DHT22;40521;53.146;6.556;2023-03-14T09:55:20;6.20;99.90
54622;DHT22;40521;53.146;6.556;2023-03-14T09:57:53;8.30;99.90
54622;DHT22;40521;53.146;6.556;2023-03-14T10:00:21;6.20;99.90
54622;DHT22;40521;53.146;6.556;2023-03-14T10:02:52;6.40;99.90
54622;DHT22;40521;53.146;6.556;2023-03-14T10:05:20;6.50;99.90
54622;DHT22;40521;53.146;6.556;2023-03-14T10:07:46;6.50;99.90
54622;DHT22;40521;53.146;6.556;2023-03-14T10:10:16;6.80;99.90
54622;DHT22;40521;53.146;6.556;2023-03-14T10:12:44;6.30;99.90
54622;DHT22;40521;53.146;6.556;2023-03-14T10:15:13;4.60;99.90
54622;DHT22;40521;53.146;6.556;2023-03-14T10:17:44;7.70;99.90
54622;DHT22;40521;53.146;6.556;2023-03-14T10:20:28;6.30;99.90
54622;DHT22;40521;53.146;6.556;2023-03-14T10:23:00;6.30;99.90
54622;DHT22;40521;53.146;6.556;2023-03-14T10:25:34;6.30;99.90
54622;DHT22;40521;53.146;6.556;2023-03-14T10:28:04;4.60;99.90
54622;DHT22;40521;53.146;6.556;2023-03-14T10:30:50;6.90;99.90
54622;DHT22;40521;53.146;6.556;2023-03-14T10:33:23;6.50;99.90
54622;DHT22;40521;53.146;6.556;2023-03-14T10:35:56;6.60;99.90
54622;DHT22;40521;53.146;6.556;2023-03-14T10:38:23;6.70;99.90
54622;DHT22;40521;53.146;6.556;2023-03-14T10:40:50;6.70;99.90
54622;DHT22;40521;53.146;6.556;2023-03-14T10:43:22;6.90;99.90
54622;DHT22;40521;53.146;6.556;2023-03-14T10:45:56;6.40;99.90
54622;DHT22;40521;53.146;6.556;2023-03-14T10:48:33;6.60;99.90
54622;DHT22;40521;53.146;6.556;2023-03-14T10:53:29;6.80;99.90
54622;DHT22;40521;53.146;6.556;2023-03-14T10:55:58;6.60;99.90
54622;DHT22;40521;53.146;6.556;2023-03-14T10:58:31;6.90;99.90
54622;DHT22;40521;53.146;6.556;2023-03-14T11:04:02;6.80;99.90
54622;DHT22;40521;53.146;6.556;2023-03-14T11:09:07;6.70;99.90
54622;DHT22;40521;53.146;6.556;2023-03-14T11:11:42;6.70;99.90
54622;DHT22;40521;53.146;6.556;2023-03-14T11:17:02;7.00;99.90
54622;DHT22;40521;53.146;6.556;2023-03-14T11:25:18;6.80;99.90
54622;DHT22;40521;53.146;6.556;2023-03-14T11:27:58;6.90;99.90
54622;DHT22;40521;53.146;6.556;2023-03-14T11:35:33;5.70;99.90
54622;DHT22;40521;53.146;6.556;2023-03-14T11:38:19;5.70;99.90
54622;DHT22;40521;53.146;6.556;2023-03-14T11:40:52;6.60;99.90
54622;DHT22;40521;53.146;6.556;2023-03-14T11:43:20;5.60;99.90
54622;DHT22;40521;53.146;6.556;2023-03-14T11:45:51;7.40;99.90
54622;DHT22;40521;53.146;6.556;2023-03-14T11:50:49;7.00;99.90
54622;DHT22;40521;53.146;6.556;2023-03-14T11:56:12;7.30;99.90
54622;DHT22;40521;53.146;6.556;2023-03-14T11:58:39;7.60;99.80
54622;DHT22;40521;53.146;6.556;2023-03-14T12:01:11;7.30;99.40
54622;DHT22;40521;53.146;6.556;2023-03-14T12:03:46;5.50;99.90
54622;DHT22;40521;53.146;6.556;2023-03-14T12:09:05;7.40;99.90
54622;DHT22;40521;53.146;6.556;2023-03-14T12:14:15;6.40;99.90
54622;DHT22;40521;53.146;6.556;2023-03-14T12:16:45;8.50;99.90
54622;DHT22;40521;53.146;6.556;2023-03-14T12:19:22;8.70;99.90
54622;DHT22;40521;53.146;6.556;2023-03-14T12:24:35;7.70;99.90
54622;DHT22;40521;53.146;6.556;2023-03-14T12:27:08;8.50;99.90
54622;DHT22;40521;53.146;6.556;2023-03-14T12:29:56;8.50;99.90
54622;DHT22;40521;53.146;6.556;2023-03-14T12:32:27;8.20;99.90
54622;DHT22;40521;53.146;6.556;2023-03-14T12:34:52;8.10;99.90
54622;DHT22;40521;53.146;6.556;2023-03-14T12:37:33;8.00;99.90
54622;DHT22;40521;53.146;6.556;2023-03-14T12:40:12;8.40;99.90
54622;DHT22;40521;53.146;6.556;2023-03-14T12:43:01;8.00;99.90
54622;DHT22;40521;53.146;6.556;2023-03-14T12:45:31;10.20;99.90
54622;DHT22;40521;53.146;6.556;2023-03-14T12:48:06;7.70;99.90
54622;DHT22;40521;53.146;6.556;2023-03-14T12:50:37;8.80;99.90
54622;DHT22;40521;53.146;6.556;2023-03-14T12:58:39;8.30;99.90
54622;DHT22;40521;53.146;6.556;2023-03-14T13:01:14;8.40;99.90
54622;DHT22;40521;53.146;6.556;2023-03-14T13:03:47;8.40;99.90
54622;DHT22;40521;53.146;6.556;2023-03-14T13:15:01;7.70;99.90
54622;DHT22;40521;53.146;6.556;2023-03-14T13:17:33;7.90;99.90
54622;DHT22;40521;53.146;6.556;2023-03-14T13:20:22;6.70;99.90
54622;DHT22;40521;53.146;6.556;2023-03-14T13:22:45;6.40;99.90
54622;DHT22;40521;53.146;6.556;2023-03-14T13:25:12;8.20;99.90
54622;DHT22;40521;53.146;6.556;2023-03-14T13:27:40;7.90;99.90
54622;DHT22;40521;53.146;6.556;2023-03-14T13:30:24;6.90;99.90
54622;DHT22;40521;53.146;6.556;2023-03-14T13:32:52;8.30;99.90
54622;DHT22;40521;53.146;6.556;2023-03-14T13:35:20;8.40;99.90
54622;DHT22;40521;53.146;6.556;2023-03-14T13:37:46;8.00;98.20
54622;DHT22;40521;53.146;6.556;2023-03-14T13:43:18;8.00;96.20
54622;DHT22;40521;53.146;6.556;2023-03-14T13:45:51;9.10;99.50
54622;DHT22;40521;53.146;6.556;2023-03-14T13:48:17;7.90;99.90
54622;DHT22;40521;53.146;6.556;2023-03-14T13:50:53;8.00;99.70
54622;DHT22;40521;53.146;6.556;2023-03-14T13:53:27;8.20;99.90
54622;DHT22;40521;53.146;6.556;2023-03-14T13:55:53;8.20;99.90
54622;DHT22;40521;53.146;6.556;2023-03-14T13:58:27;7.60;97.80
54622;DHT22;40521;53.146;6.556;2023-03-14T14:01:04;8.00;98.40
54622;DHT22;40521;53.146;6.556;2023-03-14T14:03:34;8.40;99.90
54622;DHT22;40521;53.146;6.556;2023-03-14T14:06:02;9.40;99.90
54622;DHT22;40521;53.146;6.556;2023-03-14T14:08:29;8.40;99.90
54622;DHT22;40521;53.146;6.556;2023-03-14T14:11:28;8.00;99.90
54622;DHT22;40521;53.146;6.556;2023-03-14T14:21:08;8.00;96.40
54622;DHT22;40521;53.146;6.556;2023-03-14T14:23:35;8.20;95.90
54622;DHT22;40521;53.146;6.556;2023-03-14T14:26:04;8.00;97.30
54622;DHT22;40521;53.146;6.556;2023-03-14T14:28:31;8.40;97.10
54622;DHT22;40521;53.146;6.556;2023-03-14T14:33:30;7.60;98.70
54622;DHT22;40521;53.146;6.556;2023-03-14T14:36:03;7.60;99.90
54622;DHT22;40521;53.146;6.556;2023-03-14T14:38:28;7.50;99.90
54622;DHT22;40521;53.146;6.556;2023-03-14T14:40:59;7.40;99.90
54622;DHT22;40521;53.146;6.556;2023-03-14T14:43:26;7.20;99.90
54622;DHT22;40521;53.146;6.556;2023-03-14T14:45:53;7.40;99.90
54622;DHT22;40521;53.146;6.556;2023-03-14T14:48:23;7.00;99.90
54622;DHT22;40521;53.146;6.556;2023-03-14T14:50:59;7.00;99.90
54622;DHT22;40521;53.146;6.556;2023-03-14T14:53:36;7.30;99.90
54622;DHT22;40521;53.146;6.556;2023-03-14T14:56:16;7.60;99.90
54622;DHT22;40521;53.146;6.556;2023-03-14T14:58:43;7.60;99.90
54622;DHT22;40521;53.146;6.556;2023-03-14T15:01:19;7.70;99.90
54622;DHT22;40521;53.146;6.556;2023-03-14T15:03:46;7.70;99.90
54622;DHT22;40521;53.146;6.556;2023-03-14T15:06:13;7.60;99.90
54622;DHT22;40521;53.146;6.556;2023-03-14T15:08:39;7.50;99.90
54622;DHT22;40521;53.146;6.556;2023-03-14T15:11:05;7.60;99.90
54622;DHT22;40521;53.146;6.556;2023-03-14T15:13:30;7.60;99.90
54622;DHT22;40521;53.146;6.556;2023-03-14T15:15:56;7.50;99.90
54622;DHT22;40521;53.146;6.556;2023-03-14T15:18:25;7.30;99.40
54622;DHT22;40521;53.146;6.556;2023-03-14T15:20:53;7.00;99.90
54622;DHT22;40521;53.146;6.556;2023-03-14T15:23:20;8.30;99.90
54622;DHT22;40521;53.146;6.556;2023-03-14T15:25:46;6.60;99.90
54622;DHT22;40521;53.146;6.556;2023-03-14T15:28:19;6.40;99.90
54622;DHT22;40521;53.146;6.556;2023-03-14T15:30:46;6.30;99.90
54622;DHT22;40521;53.146;6.556;2023-03-14T15:33:13;6.10;99.90
54622;DHT22;40521;53.146;6.556;2023-03-14T15:35:38;6.00;99.90
54622;DHT22;40521;53.146;6.556;2023-03-14T15:38:04;6.20;99.90
54622;DHT22;40521;53.146;6.556;2023-03-14T15:40:30;5.90;99.90
54622;DHT22;40521;53.146;6.556;2023-03-14T15:42:55;7.20;99.90
54622;DHT22;40521;53.146;6.556;2023-03-14T15:45:21;5.80;99.90
54622;DHT22;40521;53.146;6.556;2023-03-14T15:47:47;6.30;99.90
54622;DHT22;40521;53.146;6.556;2023-03-14T15:50:12;6.40;99.90
54622;DHT22;40521;53.146;6.556;2023-03-14T15:52:38;5.80;99.90
54622;DHT22;40521;53.146;6.556;2023-03-14T15:55:03;5.80;99.90
54622;DHT22;40521;53.146;6.556;2023-03-14T15:57:29;5.70;99.90
54622;DHT22;40521;53.146;6.556;2023-03-14T15:59:55;5.80;99.90
54622;DHT22;40521;53.146;6.556;2023-03-14T16:02:21;6.20;99.90
54622;DHT22;40521;53.146;6.556;2023-03-14T16:04:46;5.70;99.90
54622;DHT22;40521;53.146;6.556;2023-03-14T16:07:12;6.10;99.90
54622;DHT22;40521;53.146;6.556;2023-03-14T16:09:38;5.50;99.90
54622;DHT22;40521;53.146;6.556;2023-03-14T16:12:03;5.40;99.90
54622;DHT22;40521;53.146;6.556;2023-03-14T16:14:30;5.30;99.90
54622;DHT22;40521;53.146;6.556;2023-03-14T16:16:55;5.20;99.90
54622;DHT22;40521;53.146;6.556;2023-03-14T16:19:24;5.80;99.90
54622;DHT22;40521;53.146;6.556;2023-03-14T16:21:51;5.50;99.90
54622;DHT22;40521;53.146;6.556;2023-03-14T16:24:16;5.30;99.90
54622;DHT22;40521;53.146;6.556;2023-03-14T16:26:42;5.30;99.90
54622;DHT22;40521;53.146;6.556;2023-03-14T16:29:09;7.70;99.90
54622;DHT22;40521;53.146;6.556;2023-03-14T16:31:35;5.30;99.90
54622;DHT22;40521;53.146;6.556;2023-03-14T16:34:07;5.30;99.90
54622;DHT22;40521;53.146;6.556;2023-03-14T16:36:33;7.40;99.90
54622;DHT22;40521;53.146;6.556;2023-03-14T16:38:59;5.30;99.90
54622;DHT22;40521;53.146;6.556;2023-03-14T16:41:25;5.40;99.90
54622;DHT22;40521;53.146;6.556;2023-03-14T16:43:58;5.30;99.90
54622;DHT22;40521;53.146;6.556;2023-03-14T16:46:24;5.30;99.90
54622;DHT22;40521;53.146;6.556;2023-03-14T16:48:51;5.30;99.90
54622;DHT22;40521;53.146;6.556;2023-03-14T16:51:17;5.20;99.90
54622;DHT22;40521;53.146;6.556;2023-03-14T16:53:43;5.20;99.90
54622;DHT22;40521;53.146;6.556;2023-03-14T16:56:08;5.00;99.90
54622;DHT22;40521;53.146;6.556;2023-03-14T16:58:35;2.90;99.90
54622;DHT22;40521;53.146;6.556;2023-03-14T17:01:19;4.70;99.90
54622;DHT22;40521;53.146;6.556;2023-03-14T17:03:46;4.60;99.90